createdAt,value
2023-04-09T00:00:03.152Z,50.25
2023-04-09T00:02:42.906Z,54.38
2023-04-09T00:05:14.410Z,54.05
2023-04-09T00:07:44.793Z,52.72
2023-04-09T00:10:15.008Z,51.35
2023-04-09T00:12:47.848Z,52.40
2023-04-09T00:15:30.075Z,52.90
2023-04-09T00:18:02.052Z,51.63
2023-04-09T00:20:32.348Z,51.53
2023-04-09T00:23:02.580Z,51.55
2023-04-09T00:25:32.729Z,52.30
2023-04-09T00:28:05.678Z,53.80
2023-04-09T00:30:36.033Z,53.72
2023-04-09T00:33:06.668Z,54.63
2023-04-09T00:35:36.988Z,54.83
2023-04-09T00:38:07.153Z,57.22
2023-04-09T00:40:37.397Z,57.13
2023-04-09T00:43:10.249Z,59.40
2023-04-09T00:45:41.104Z,55.10
2023-04-09T00:48:12.004Z,56.88
2023-04-09T00:50:42.246Z,56.42
2023-04-09T00:53:15.288Z,54.88
2023-04-09T00:55:46.076Z,58.40
2023-04-09T00:58:19.095Z,59.42
2023-04-09T01:00:49.560Z,61.78
2023-04-09T01:03:20.386Z,59.47
2023-04-09T01:05:57.654Z,60.65
2023-04-09T01:08:36.389Z,59.83
2023-04-09T01:11:13.168Z,56.83
2023-04-09T01:13:52.530Z,58.40
2023-04-09T01:16:26.491Z,57.22
2023-04-09T01:19:02.712Z,57.67
2023-04-09T01:21:36.795Z,56.10
2023-04-09T01:24:22.720Z,56.88
2023-04-09T01:27:03.346Z,59.00
2023-04-09T01:29:58.766Z,55.38
2023-04-09T01:32:32.667Z,55.50
2023-04-09T01:35:04.124Z,54.78
2023-04-09T01:37:35.094Z,54.00
2023-04-09T01:42:36.660Z,53.85
2023-04-09T01:47:41.873Z,52.42
2023-04-09T01:50:13.362Z,53.15
2023-04-09T01:52:44.039Z,49.90
2023-04-09T01:55:14.281Z,52.17
2023-04-09T01:57:44.632Z,52.17
2023-04-09T02:00:18.538Z,53.35
2023-04-09T02:02:57.237Z,51.95
2023-04-09T02:05:32.282Z,55.33
2023-04-09T02:08:06.091Z,53.75
2023-04-09T02:10:38.853Z,51.58
2023-04-09T02:13:12.670Z,51.38
2023-04-09T02:15:46.717Z,52.70
2023-04-09T02:18:27.564Z,53.13
2023-04-09T02:20:58.139Z,54.83
2023-04-09T02:23:28.869Z,57.28
2023-04-09T02:25:59.584Z,55.40
2023-04-09T02:31:02.578Z,54.25
2023-04-09T02:33:33.736Z,55.50
2023-04-09T02:36:03.950Z,55.17
2023-04-09T02:38:34.636Z,55.42
2023-04-09T02:41:05.002Z,53.83
2023-04-09T02:43:35.171Z,54.65
2023-04-09T02:46:08.231Z,55.78
2023-04-09T02:48:39.165Z,54.03
2023-04-09T02:51:10.608Z,57.10
2023-04-09T02:53:41.401Z,57.88
2023-04-09T02:56:11.672Z,59.90
2023-04-09T02:58:41.932Z,56.17
2023-04-09T03:01:14.889Z,53.00
2023-04-09T03:03:46.501Z,55.88
2023-04-09T03:06:17.018Z,56.67
2023-04-09T03:08:47.396Z,57.85
2023-04-09T03:11:17.677Z,57.08
2023-04-09T03:13:47.889Z,54.88
2023-04-09T03:16:20.780Z,57.72
2023-04-09T03:18:51.234Z,53.08
2023-04-09T03:21:21.644Z,56.35
2023-04-09T03:23:53.702Z,58.42
2023-04-09T03:26:24.085Z,56.55
2023-04-09T03:28:54.641Z,59.22
2023-04-09T03:31:27.846Z,56.72
2023-04-09T03:33:58.069Z,56.78
2023-04-09T03:36:29.036Z,54.85
2023-04-09T03:39:03.381Z,56.10
2023-04-09T03:41:40.316Z,60.38
2023-04-09T03:44:14.884Z,57.25
2023-04-09T03:47:26.369Z,57.47
2023-04-09T03:49:57.922Z,56.97
2023-04-09T03:52:31.418Z,56.40
2023-04-09T03:55:07.683Z,58.03
2023-04-09T04:00:12.247Z,54.10
2023-04-09T04:03:11.762Z,56.88
2023-04-09T04:05:57.546Z,59.00
2023-04-09T04:08:28.132Z,57.28
2023-04-09T04:10:58.493Z,59.15
2023-04-09T04:13:28.925Z,55.55
2023-04-09T04:16:00.737Z,56.38
2023-04-09T04:18:34.009Z,54.78
2023-04-09T04:21:04.155Z,55.35
2023-04-09T04:23:37.356Z,58.25
2023-04-09T04:26:20.045Z,58.95
2023-04-09T04:28:50.407Z,62.30
2023-04-09T04:31:35.792Z,61.30
2023-04-09T04:34:08.766Z,62.75
2023-04-09T04:36:40.262Z,61.47
2023-04-09T04:39:11.490Z,60.97
2023-04-09T04:42:04.555Z,60.58
2023-04-09T04:44:35.518Z,62.20
2023-04-09T04:47:16.282Z,62.95
2023-04-09T04:49:49.256Z,61.47
2023-04-09T04:52:20.824Z,60.63
2023-04-09T04:54:54.921Z,60.47
2023-04-09T04:57:27.260Z,62.08
2023-04-09T05:02:30.434Z,65.68
2023-04-09T05:05:24.156Z,67.20
2023-04-09T05:07:57.342Z,67.32
2023-04-09T05:10:27.779Z,71.00
2023-04-09T05:13:01.058Z,68.07
2023-04-09T05:15:37.010Z,65.35
2023-04-09T05:18:08.383Z,66.32
2023-04-09T05:20:42.160Z,48.28
2023-04-09T05:23:13.236Z,39.25
2023-04-09T05:25:46.316Z,38.80
2023-04-09T05:28:27.487Z,39.03
2023-04-09T05:31:13.264Z,55.00
2023-04-09T05:33:49.390Z,40.63
2023-04-09T05:36:27.951Z,41.30
2023-04-09T05:38:58.096Z,45.13
2023-04-09T05:41:28.368Z,47.35
2023-04-09T05:44:18.992Z,50.92
2023-04-09T05:46:51.366Z,52.80
2023-04-09T05:49:27.498Z,54.70
2023-04-09T05:52:02.897Z,51.90
2023-04-09T05:54:35.560Z,52.58
2023-04-09T05:57:07.518Z,55.35
2023-04-09T05:59:40.763Z,57.50
2023-04-09T06:02:11.278Z,58.60
2023-04-09T06:04:41.768Z,56.72
2023-04-09T06:07:15.660Z,58.97
2023-04-09T06:09:47.208Z,59.95
2023-04-09T06:12:17.678Z,61.03
2023-04-09T06:14:47.974Z,65.50
2023-04-09T06:17:18.323Z,63.10
2023-04-09T06:19:48.948Z,82.28
2023-04-09T06:22:21.770Z,72.13
2023-04-09T06:24:52.073Z,73.25
2023-04-09T06:27:23.158Z,73.65
2023-04-09T06:32:23.520Z,76.25
2023-04-09T06:34:53.772Z,79.22
2023-04-09T06:37:26.921Z,78.87
2023-04-09T06:40:00.855Z,77.18
2023-04-09T06:42:31.967Z,79.72
2023-04-09T06:45:13.686Z,76.20
2023-04-09T06:47:44.129Z,79.47
2023-04-09T06:50:14.595Z,72.65
2023-04-09T06:52:47.591Z,77.88
2023-04-09T06:55:17.850Z,73.38
2023-04-09T06:57:48.063Z,75.50
2023-04-09T07:00:18.751Z,71.55
2023-04-09T07:02:49.745Z,62.50
2023-04-09T07:05:20.405Z,56.17
2023-04-09T07:07:53.424Z,54.60
2023-04-09T07:10:23.685Z,54.13
2023-04-09T07:12:53.979Z,55.30
2023-04-09T07:15:24.247Z,54.13
2023-04-09T07:17:55.046Z,50.45
2023-04-09T07:20:25.350Z,44.50
2023-04-09T07:22:59.331Z,46.20
2023-04-09T07:25:32.771Z,45.35
2023-04-09T07:28:03.273Z,43.38
2023-04-09T07:30:33.698Z,46.38
2023-04-09T07:33:04.389Z,45.03
2023-04-09T07:35:35.671Z,43.95
2023-04-09T07:38:08.667Z,40.42
2023-04-09T07:40:39.711Z,41.40
2023-04-09T07:45:39.869Z,59.15
2023-04-09T07:48:10.959Z,62.63
2023-04-09T07:53:14.556Z,61.72
2023-04-09T07:55:44.786Z,63.90
2023-04-09T07:58:15.063Z,73.93
2023-04-09T08:00:45.292Z,68.73
2023-04-09T08:03:16.073Z,74.30
2023-04-09T08:05:46.799Z,69.97
2023-04-09T08:08:20.172Z,70.20
2023-04-09T08:10:50.451Z,68.18
2023-04-09T08:13:20.793Z,67.15
2023-04-09T08:15:51.092Z,66.72
2023-04-09T08:18:21.342Z,65.83
2023-04-09T08:20:51.575Z,64.60
2023-04-09T08:23:24.392Z,63.47
2023-04-09T08:25:54.582Z,64.15
2023-04-09T08:28:24.813Z,68.33
2023-04-09T08:30:54.992Z,57.65
2023-04-09T08:33:25.225Z,59.40
2023-04-09T08:35:55.574Z,59.63
2023-04-09T08:38:28.412Z,57.88
2023-04-09T08:40:58.627Z,52.67
2023-04-09T08:43:47.212Z,52.70
2023-04-09T08:46:22.300Z,46.42
2023-04-09T08:48:54.663Z,43.58
2023-04-09T08:51:28.985Z,42.78
2023-04-09T08:54:04.720Z,32.72
2023-04-09T08:56:36.115Z,34.33
2023-04-09T08:59:06.545Z,35.75
2023-04-09T09:01:37.035Z,34.80
2023-04-09T09:04:08.741Z,35.35
2023-04-09T09:06:41.283Z,35.13
2023-04-09T09:09:16.029Z,35.90
2023-04-09T09:11:48.733Z,34.88
2023-04-09T09:14:20.477Z,37.03
2023-04-09T09:17:08.901Z,35.65
2023-04-09T09:19:39.189Z,36.50
2023-04-09T09:22:12.878Z,33.60
2023-04-09T09:24:52.968Z,32.97
2023-04-09T09:27:37.268Z,34.17
2023-04-09T09:30:09.057Z,33.22
2023-04-09T09:32:40.088Z,32.42
2023-04-09T09:37:41.619Z,33.65
2023-04-09T09:40:30.222Z,33.40
2023-04-09T09:43:00.999Z,32.42
2023-04-09T09:45:32.646Z,36.13
2023-04-09T09:48:04.386Z,36.58
2023-04-09T09:50:36.582Z,35.42
2023-04-09T09:53:09.087Z,32.85
2023-04-09T09:55:44.508Z,32.75
2023-04-09T09:58:20.567Z,34.13
2023-04-09T10:00:51.991Z,35.85
2023-04-09T10:03:26.452Z,27.83
2023-04-09T10:06:00.641Z,30.02
2023-04-09T10:08:34.373Z,31.75
2023-04-09T10:11:09.303Z,31.02
2023-04-09T10:13:43.339Z,30.55
2023-04-09T10:16:14.588Z,30.50
2023-04-09T10:18:45.801Z,28.33
2023-04-09T10:21:29.119Z,33.45
2023-04-09T10:24:00.371Z,32.75
2023-04-09T10:26:36.657Z,31.75
2023-04-09T10:29:09.915Z,34.55
2023-04-09T10:31:51.797Z,31.40
2023-04-09T10:34:24.859Z,29.90
2023-04-09T10:36:58.734Z,30.00
2023-04-09T10:39:30.949Z,34.13
2023-04-09T10:42:05.391Z,31.77
2023-04-09T10:44:38.321Z,32.42
2023-04-09T10:47:08.901Z,37.50
2023-04-09T10:49:41.142Z,39.20
2023-04-09T10:52:14.167Z,42.33
2023-04-09T10:54:47.334Z,37.58
2023-04-09T10:57:26.633Z,36.15
2023-04-09T10:59:58.285Z,40.50
2023-04-09T11:03:04.827Z,44.72
2023-04-09T11:05:43.548Z,34.40
2023-04-09T11:08:15.993Z,29.50
2023-04-09T11:10:49.772Z,31.15
2023-04-09T11:13:24.217Z,29.02
2023-04-09T11:15:54.649Z,27.73
2023-04-09T11:18:26.147Z,28.15
2023-04-09T11:20:58.569Z,27.55
2023-04-09T11:23:32.531Z,32.88
2023-04-09T11:26:03.075Z,30.48
2023-04-09T11:28:38.517Z,25.90
2023-04-09T11:31:09.319Z,28.95
2023-04-09T11:33:42.380Z,30.27
2023-04-09T11:36:12.865Z,29.05
2023-04-09T11:38:43.129Z,28.40
2023-04-09T11:41:14.388Z,31.60
2023-04-09T11:43:47.465Z,35.25
2023-04-09T11:46:20.393Z,31.70
2023-04-09T11:48:52.033Z,31.42
2023-04-09T11:51:22.917Z,32.28
2023-04-09T11:53:53.429Z,31.60
2023-04-09T11:56:23.841Z,31.33
2023-04-09T11:58:58.144Z,31.77
2023-04-09T12:01:33.584Z,29.83
2023-04-09T12:04:05.875Z,32.95
2023-04-09T12:06:37.026Z,32.65
2023-04-09T12:09:07.384Z,31.33
2023-04-09T12:11:42.324Z,29.83
2023-04-09T12:14:19.776Z,27.10
2023-04-09T12:16:54.796Z,40.72
2023-04-09T12:19:28.671Z,29.83
2023-04-09T12:21:59.797Z,25.60
2023-04-09T12:27:00.296Z,29.67
2023-04-09T12:29:33.853Z,29.50
2023-04-09T12:32:04.254Z,29.48
2023-04-09T12:34:34.612Z,28.40
2023-04-09T12:37:05.238Z,33.00
2023-04-09T12:39:35.686Z,30.38
2023-04-09T12:42:05.936Z,31.27
2023-04-09T12:44:39.439Z,29.10
2023-04-09T12:47:09.685Z,27.65
2023-04-09T12:49:42.190Z,31.37
2023-04-09T12:52:12.784Z,27.73
2023-04-09T12:54:43.119Z,30.67
2023-04-09T12:57:13.289Z,29.23
2023-04-09T12:59:46.112Z,27.83
2023-04-09T13:02:16.688Z,27.58
2023-04-09T13:04:47.424Z,25.15
2023-04-09T13:07:19.433Z,28.48
2023-04-09T13:09:50.724Z,31.13
2023-04-09T13:12:21.792Z,26.17
2023-04-09T13:17:27.518Z,26.52
2023-04-09T13:19:57.784Z,27.02
2023-04-09T13:22:27.958Z,24.87
2023-04-09T13:24:58.065Z,23.20
2023-04-09T13:27:28.290Z,24.87
2023-04-09T13:30:01.307Z,23.07
2023-04-09T13:32:31.489Z,23.15
2023-04-09T13:35:01.664Z,24.30
2023-04-09T13:37:32.079Z,28.20
2023-04-09T13:40:02.221Z,27.38
2023-04-09T13:42:32.801Z,26.40
2023-04-09T13:45:05.691Z,29.88
2023-04-09T13:47:36.073Z,22.77
2023-04-09T13:50:06.671Z,25.05
2023-04-09T13:52:36.849Z,24.35
2023-04-09T13:55:07.904Z,24.50
2023-04-09T14:00:14.157Z,22.80
2023-04-09T14:02:44.918Z,22.77
2023-04-09T14:05:15.229Z,22.77
2023-04-09T14:07:45.450Z,23.35
2023-04-09T14:10:16.232Z,23.07
2023-04-09T14:12:46.485Z,22.60
2023-04-09T14:15:19.345Z,21.75
2023-04-09T14:17:49.527Z,23.88
2023-04-09T14:20:21.409Z,23.27
2023-04-09T14:22:51.948Z,25.75
2023-04-09T14:25:22.109Z,21.52
2023-04-09T14:27:52.398Z,23.60
2023-04-09T14:30:26.050Z,23.52
2023-04-09T14:32:56.405Z,22.70
2023-04-09T14:35:27.050Z,22.35
2023-04-09T14:37:57.513Z,24.30
2023-04-09T14:40:27.796Z,24.48
2023-04-09T14:42:57.980Z,23.70
2023-04-09T14:45:31.094Z,22.67
2023-04-09T14:48:01.392Z,24.75
2023-04-09T14:50:34.214Z,29.42
2023-04-09T14:53:04.405Z,30.73
2023-04-09T14:55:34.672Z,27.63
2023-04-09T14:58:07.775Z,30.23
2023-04-09T15:00:41.553Z,29.55
2023-04-09T15:03:12.363Z,29.52
2023-04-09T15:08:12.796Z,28.08
2023-04-09T15:10:43.246Z,29.02
2023-04-09T15:13:13.611Z,30.15
2023-04-09T15:15:46.845Z,31.42
2023-04-09T15:18:17.041Z,32.97
2023-04-09T15:20:47.576Z,30.13
2023-04-09T15:23:17.793Z,31.25
2023-04-09T15:25:48.009Z,28.58
2023-04-09T15:28:18.203Z,31.13
2023-04-09T15:30:50.986Z,30.83
2023-04-09T15:33:21.376Z,32.05
2023-04-09T15:35:51.640Z,31.65
2023-04-09T15:38:22.346Z,31.40
2023-04-09T15:40:52.517Z,31.30
2023-04-09T15:43:23.546Z,35.07
2023-04-09T15:48:26.758Z,32.00
2023-04-09T15:50:57.042Z,31.43
2023-04-09T15:53:29.573Z,33.60
2023-04-09T15:56:00.082Z,36.58
2023-04-09T15:58:30.324Z,36.28
2023-04-09T16:01:03.167Z,36.55
2023-04-09T16:03:37.342Z,32.40
2023-04-09T16:06:08.915Z,46.53
2023-04-09T16:08:42.973Z,37.58
2023-04-09T16:11:13.724Z,42.10
2023-04-09T16:13:43.961Z,37.88
2023-04-09T16:16:16.728Z,35.47
2023-04-09T16:18:47.301Z,30.80
2023-04-09T16:21:17.765Z,34.78
2023-04-09T16:23:48.016Z,27.10
2023-04-09T16:26:18.456Z,26.67
2023-04-09T16:28:48.698Z,23.73
2023-04-09T16:31:21.549Z,23.52
2023-04-09T16:33:51.921Z,22.67
2023-04-09T16:36:22.322Z,22.90
2023-04-09T16:38:52.910Z,23.23
2023-04-09T16:41:23.236Z,23.45
2023-04-09T16:43:53.687Z,23.50
2023-04-09T16:46:26.619Z,24.17
2023-04-09T16:48:56.885Z,23.98
2023-04-09T16:51:27.362Z,23.80
2023-04-09T16:53:57.678Z,26.08
2023-04-09T16:56:28.250Z,21.90
2023-04-09T16:58:58.540Z,22.80
2023-04-09T17:01:31.750Z,24.30
2023-04-09T17:04:03.364Z,27.73
2023-04-09T17:06:33.709Z,27.88
2023-04-09T17:09:05.589Z,29.37
2023-04-09T17:11:35.826Z,26.77
2023-04-09T17:14:06.210Z,26.97
2023-04-09T17:16:39.441Z,27.08
2023-04-09T17:19:09.723Z,27.30
2023-04-09T17:21:39.961Z,32.08
2023-04-09T17:24:10.633Z,30.08
2023-04-09T17:26:40.933Z,30.65
2023-04-09T17:29:11.227Z,30.33
2023-04-09T17:31:44.224Z,46.92
2023-04-09T17:34:16.557Z,45.90
2023-04-09T17:36:49.785Z,40.13
2023-04-09T17:39:20.016Z,40.13
2023-04-09T17:41:50.237Z,39.17
2023-04-09T17:44:21.013Z,43.08
2023-04-09T17:46:54.275Z,39.05
2023-04-09T17:49:24.777Z,41.42
2023-04-09T17:51:55.130Z,42.17
2023-04-09T17:54:25.408Z,41.22
2023-04-09T17:56:57.225Z,41.67
2023-04-09T17:59:27.568Z,41.92
2023-04-09T18:02:00.686Z,42.83
2023-04-09T18:04:34.364Z,42.15
2023-04-09T18:07:04.996Z,43.10
2023-04-09T18:09:35.312Z,44.45
2023-04-09T18:12:05.636Z,42.35
2023-04-09T18:14:35.823Z,41.17
2023-04-09T18:17:08.611Z,43.47
2023-04-09T18:19:41.555Z,30.17
2023-04-09T18:22:11.901Z,42.10
2023-04-09T18:24:42.324Z,41.63
2023-04-09T18:27:12.578Z,44.53
2023-04-09T18:29:42.780Z,48.53
2023-04-09T18:32:15.693Z,50.90
2023-04-09T18:34:47.302Z,47.78
2023-04-09T18:37:17.640Z,52.13
2023-04-09T18:39:48.189Z,50.87
2023-04-09T18:42:18.366Z,57.80
2023-04-09T18:44:49.084Z,55.80
2023-04-09T18:47:21.944Z,53.92
2023-04-09T18:49:52.242Z,52.13
2023-04-09T18:52:22.602Z,51.47
2023-04-09T18:54:53.035Z,53.58
2023-04-09T18:57:23.395Z,51.05
2023-04-09T18:59:54.098Z,49.55
2023-04-09T19:02:28.385Z,49.88
2023-04-09T19:05:02.281Z,50.03
2023-04-09T19:07:33.980Z,48.20
2023-04-09T19:10:04.282Z,55.08
2023-04-09T19:12:34.611Z,51.60
2023-04-09T19:15:06.479Z,47.63
2023-04-09T19:17:39.447Z,43.92
2023-04-09T19:20:11.178Z,45.92
2023-04-09T19:22:41.635Z,46.28
2023-04-09T19:25:12.880Z,46.45
2023-04-09T19:27:43.418Z,47.85
2023-04-09T19:30:14.277Z,48.58
2023-04-09T19:32:48.954Z,47.20
2023-04-09T19:35:21.507Z,50.40
2023-04-09T19:37:54.300Z,47.75
2023-04-09T19:40:24.641Z,49.88
2023-04-09T19:42:56.300Z,48.17
2023-04-09T19:45:26.538Z,48.10
2023-04-09T19:47:59.685Z,48.60
2023-04-09T19:50:30.042Z,45.55
2023-04-09T19:53:00.173Z,49.15
2023-04-09T19:55:30.527Z,47.03
2023-04-09T19:58:00.922Z,46.17
2023-04-09T20:00:31.618Z,45.78
2023-04-09T20:03:06.124Z,44.88
2023-04-09T20:05:36.648Z,45.90
2023-04-09T20:08:12.255Z,42.47
2023-04-09T20:10:46.632Z,45.50
2023-04-09T20:13:16.964Z,45.58
2023-04-09T20:15:47.132Z,45.63
2023-04-09T20:18:20.000Z,49.50
2023-04-09T20:20:51.052Z,50.28
2023-04-09T20:26:01.352Z,50.20
2023-04-09T20:28:31.612Z,49.53
2023-04-09T20:31:02.495Z,48.47
2023-04-09T20:33:35.886Z,46.45
2023-04-09T20:36:06.192Z,49.58
2023-04-09T20:38:36.584Z,52.75
2023-04-09T20:41:07.377Z,55.75
2023-04-09T20:43:38.791Z,49.03
2023-04-09T20:46:09.085Z,47.42
2023-04-09T20:48:42.005Z,49.37
2023-04-09T20:51:13.335Z,51.13
2023-04-09T20:53:44.053Z,48.40
2023-04-09T20:56:14.879Z,48.10
2023-04-09T20:58:45.646Z,51.03
2023-04-09T21:01:18.533Z,55.55
2023-04-09T21:03:52.973Z,51.03
2023-04-09T21:06:23.365Z,46.67
2023-04-09T21:08:56.931Z,56.50
2023-04-09T21:11:28.147Z,50.13
2023-04-09T21:13:58.483Z,52.13
2023-04-09T21:16:30.172Z,52.22
2023-04-09T21:19:07.394Z,55.10
2023-04-09T21:21:38.160Z,47.47
2023-04-09T21:24:08.597Z,49.78
2023-04-09T21:29:15.989Z,48.60
2023-04-09T21:31:46.222Z,48.75
2023-04-09T21:34:19.220Z,49.53
2023-04-09T21:36:49.491Z,50.63
2023-04-09T21:39:19.824Z,49.80
2023-04-09T21:41:50.151Z,53.28
2023-04-09T21:44:21.590Z,52.70
2023-04-09T21:46:52.570Z,55.40
2023-04-09T21:49:25.337Z,58.47
2023-04-09T21:51:57.011Z,51.95
2023-04-09T21:54:27.195Z,52.03
2023-04-09T21:56:57.393Z,52.87
2023-04-09T21:59:27.732Z,51.53
2023-04-09T22:01:58.114Z,50.38
2023-04-09T22:04:31.018Z,51.90
2023-04-09T22:07:01.496Z,53.25
2023-04-09T22:09:31.945Z,52.95
2023-04-09T22:12:03.018Z,51.30
2023-04-09T22:14:33.861Z,50.85
2023-04-09T22:17:04.918Z,50.78
2023-04-09T22:22:09.350Z,53.40
2023-04-09T22:24:39.644Z,52.42
2023-04-09T22:27:10.284Z,51.72
2023-04-09T22:29:40.746Z,49.42
2023-04-09T22:32:12.366Z,49.55
2023-04-09T22:34:45.176Z,51.13
2023-04-09T22:37:17.364Z,53.70
2023-04-09T22:39:47.613Z,52.63
2023-04-09T22:42:17.863Z,55.13
2023-04-09T22:44:48.116Z,52.22
2023-04-09T22:47:18.394Z,51.83
2023-04-09T22:49:55.097Z,55.93
2023-04-09T22:52:25.547Z,53.75
2023-04-09T22:54:55.861Z,55.47
2023-04-09T22:57:26.031Z,55.15
2023-04-09T22:59:56.711Z,55.70
2023-04-09T23:02:27.536Z,52.03
2023-04-09T23:07:32.616Z,53.10
2023-04-09T23:10:03.191Z,56.63
2023-04-09T23:12:33.418Z,52.65
2023-04-09T23:15:07.362Z,55.55
2023-04-09T23:17:37.943Z,61.38
2023-04-09T23:20:13.961Z,52.78
2023-04-09T23:22:44.226Z,55.03
2023-04-09T23:25:14.991Z,55.72
2023-04-09T23:27:46.843Z,53.08
2023-04-09T23:30:20.619Z,50.60
2023-04-09T23:32:53.273Z,53.00
2023-04-09T23:35:27.063Z,54.65
2023-04-09T23:37:57.373Z,52.40
2023-04-09T23:40:27.729Z,52.97
2023-04-09T23:42:58.177Z,55.65
2023-04-09T23:45:28.426Z,54.88
2023-04-09T23:47:58.706Z,54.55
2023-04-09T23:50:31.773Z,57.40
2023-04-09T23:53:04.045Z,55.03
2023-04-09T23:55:38.358Z,56.67
2023-04-09T23:58:08.689Z,57.45
